首页
METAR-TAF:

METAR-TAF

机场 :

Greater Rochester International Airport

羅徹斯特, 紐約州, 美国

纬度: 43-07-00N, 经度: 077-40-36W, 海拔: 170米

当前天气观测

该预报发布于17分钟前的03:23 UTC
风速7节,风向东南
温度 19°C
湿度 94%
气压 1007 hPa
能見度: 4.8公里
少量云层高于2100英尺
多云层高于4000英尺, 积雨云.
阴天层高于7000英尺
雷暴, 大雨, 轻雾

METAR: KROC 200323Z 13007KT 3SM +TSRA BR FEW021 BKN040CB OVC070 19/18 A2973 RMK AO2 OCNL LTGCGICCC OHD TS OHD MOV NE P0029 T01940183

时间: 23:40 (03:40 UTC)

预报

该预报发布于41分钟前的02:59 UTC
预报有效从20日的 03点(UTC)到 20日的 24点(UTC)
风速12节,风向南转西南,有时为24节阵风
能見度: 6.4公里
多云层高于4000英尺, 积雨云.
雷暴, 雨
从 20日的 0340点(UTC)
风速3节,风向多变
能見度: 10公里
多云层高于7000英尺
从 20日的 0600点(UTC)
风速3节,风向多变
能見度: 10公里
多云层高于4500英尺
从 20日的 1000点(UTC)
风速5节,风向东北
能見度: 10公里
阴天层高于2500英尺
从 20日的 1200点(UTC)
风速5节,风向东北
能見度: 8.0公里
阴天层高于2000英尺
小雨, 轻雾
从 20日的 1400点(UTC)
风速5节,风向北转东北
能見度: 3.2公里
阴天层高于700英尺
大雨, 轻雾
从 20日的 1600点(UTC)
风速9节,风向北转东北
能見度: 3.2公里
阴天层高于300英尺
大雨, 轻雾
从 20日的 2000点(UTC)
风速10节,风向东北
能見度: 6.4公里
阴天层高于300英尺
雨, 轻雾

TAF: KROC 200259Z 2003/2024 21012G24KT 4SM TSRA BKN040CB FM200340 VRB03KT P6SM BKN070 FM200600 VRB03KT P6SM BKN045 FM201000 04005KT P6SM OVC025 FM201200 04005KT 5SM -RA BR OVC020 FM201400 03005KT 2SM +RA BR OVC007 FM201600 03009KT 2SM +RA BR OVC003 FM202000 04010KT 4SM RA BR OVC003

超过4000个机场的气象观测和天气预报(METAR&TAF报告)。

可查询的气象台以黄色和红色小点在地图上表示。

将鼠标移到小点上方,可查看气象台名称。

然后点击查看天气观测和预报。

如需切换地图:点击带黑十字的绿色按钮放大地图;点击带横线的绿色按钮缩小地图;或者点击绿色箭头查看邻近地区的地图。


METAR-TAF: